GLACIER NATIONAL PARK
GARDEN WALL WX STATION
SHOULOW 10/21/2017
CLICK HERE TO VIEW GRAPH!!!
All data is provisional.
Wind sensor is not heated. Riming can occur.
        DATE  TIME Temp F Wind Speed Wind Dir Wind Gust     BATT  % RH Press InHg
                                                                                  
                       AVG        AVG      AVG       MAX      AVG   AVG        AVG

  10/21/2017 14:00      21         10      179        14    12.29    90      29.87
  10/21/2017 13:00      21         11      181        20    12.29    90      29.87
  10/21/2017 12:00      21         13      185        24    12.29    90      29.87
  10/21/2017 11:00      21         11      185        18    12.29    90      29.84
  10/21/2017 10:00      22         13      191        20    12.28    90      29.84
  10/21/2017 09:00      23         11      191        21    12.27    91      29.82
  10/21/2017 08:00      23          9      196        14    12.27    91      29.82
  10/21/2017 07:00      23          7      199        17    12.28    91      29.82
  10/21/2017 06:00      23          6      204        12    12.28    91      29.80
  10/21/2017 05:00      23          6      199        13    12.28    91      29.79
  10/21/2017 04:00      23          5      212        13    12.28    91      29.77
  10/21/2017 03:00      23          5      222        15    12.29    91      29.77
  10/21/2017 02:00      23          5      223        12    12.29    91      29.74
  10/21/2017 01:00      23          5      205        11    12.29    91      29.74
  10/20/2017 24:00      23          7      205        17    12.30    91      29.74
  10/20/2017 23:00      24          7      205        14    12.30    91      29.71
  10/20/2017 22:00      24          7      206        16    12.31    92      29.70
  10/20/2017 21:00      25          6      216        14    12.32    92      29.68
  10/20/2017 20:00      25          8      202        16    12.35    92      29.66
  10/20/2017 19:00      25          9      204        24    12.42    92      29.63
  10/20/2017 18:00      25         10      192        20    12.54    92      29.60
  10/20/2017 17:00      26         10      196        19    12.69    92      29.59
  10/20/2017 16:00      26          9      176        16    12.82    92      29.56
  10/20/2017 15:00      26          7      186        12    12.81    93      29.55
  10/20/2017 14:00      27          9      197        16    12.75    93      29.53
  10/20/2017 13:00      27          8      196        18    12.61    93      29.52
  10/20/2017 12:00      28         10      187        20    12.47    94      29.51
  10/20/2017 11:00      29          9      191        17    12.40    94      29.50
  10/20/2017 10:00      30         10      172        18    12.36    94      29.49
  10/20/2017 09:00      31         10      159        19    12.34    84      29.48
  10/20/2017 08:00      33         12      142        19    12.34    71      29.49
  10/20/2017 07:00      35         12      147        21    12.35    61      29.50
  10/20/2017 06:00      36         12      156        20    12.35    53      29.51
  10/20/2017 05:00      41         13      147        33    12.37    33      29.51
  10/20/2017 04:00      44         19      141        39    12.39    26      29.50
  10/20/2017 03:00      44         18      140        41    12.41    30      29.53
  10/20/2017 02:00      43         20      144        41    12.44    31      29.55
  10/20/2017 01:00      43         24      152        45    12.46    32      29.59
  10/19/2017 24:00      43         22      149        38    12.49    32      29.60
  10/19/2017 23:00      42         21      150        35    12.52    33      29.61
  10/19/2017 22:00      42         19      147        31    12.55    33      29.64
  10/19/2017 21:00      42         20      141        30    12.60    35      29.63
  10/19/2017 20:00      42         19      145        34    12.70    37      29.64
  10/19/2017 19:00      42         20      154        33    12.94    42      29.66
  10/19/2017 18:00      43         22      159        34    13.34    40      29.67
  10/19/2017 17:00      43         16      156        31    13.73    44      29.68
  10/19/2017 16:00      43         16      160        31    13.96    46      29.69
  10/19/2017 15:00      41         17      152        34    13.10    47      29.69


CLICK HERE TO VIEW GRAPH!!!